sensor_id;sensor_type;location;lat;lon;timestamp;temperature;humidity
62476;DHT22;50739;45.670;11.936;2023-11-19T00:04:43;6.17;84.05
62476;DHT22;50739;45.670;11.936;2023-11-19T00:09:47;6.20;84.21
62476;DHT22;50739;45.670;11.936;2023-11-19T00:14:49;6.11;84.06
62476;DHT22;50739;45.670;11.936;2023-11-19T00:19:51;6.08;84.51
62476;DHT22;50739;45.670;11.936;2023-11-19T00:24:55;6.05;84.58
62476;DHT22;50739;45.670;11.936;2023-11-19T00:29:58;6.03;84.80
62476;DHT22;50739;45.670;11.936;2023-11-19T00:35:00;6.04;84.83
62476;DHT22;50739;45.670;11.936;2023-11-19T00:40:06;6.10;84.42
62476;DHT22;50739;45.670;11.936;2023-11-19T00:45:11;6.17;83.77
62476;DHT22;50739;45.670;11.936;2023-11-19T00:50:14;6.13;83.35
62476;DHT22;50739;45.670;11.936;2023-11-19T00:55:18;6.15;84.03
62476;DHT22;50739;45.670;11.936;2023-11-19T01:00:20;6.21;83.36
62476;DHT22;50739;45.670;11.936;2023-11-19T01:05:25;6.26;83.00
62476;DHT22;50739;45.670;11.936;2023-11-19T01:10:29;6.01;82.98
62476;DHT22;50739;45.670;11.936;2023-11-19T01:15:31;6.11;83.28
62476;DHT22;50739;45.670;11.936;2023-11-19T01:20:33;6.13;82.62
62476;DHT22;50739;45.670;11.936;2023-11-19T01:25:37;6.10;82.98
62476;DHT22;50739;45.670;11.936;2023-11-19T01:30:39;6.17;83.26
62476;DHT22;50739;45.670;11.936;2023-11-19T01:35:42;6.18;83.02
62476;DHT22;50739;45.670;11.936;2023-11-19T01:40:46;6.25;82.80
62476;DHT22;50739;45.670;11.936;2023-11-19T01:45:48;6.28;81.86
62476;DHT22;50739;45.670;11.936;2023-11-19T01:50:52;6.36;81.44
62476;DHT22;50739;45.670;11.936;2023-11-19T01:55:56;6.36;80.88
62476;DHT22;50739;45.670;11.936;2023-11-19T02:00:59;6.43;81.10
62476;DHT22;50739;45.670;11.936;2023-11-19T02:06:02;6.59;80.26
62476;DHT22;50739;45.670;11.936;2023-11-19T02:11:07;6.62;79.31
62476;DHT22;50739;45.670;11.936;2023-11-19T02:16:09;6.42;80.13
62476;DHT22;50739;45.670;11.936;2023-11-19T02:21:12;6.28;80.58
62476;DHT22;50739;45.670;11.936;2023-11-19T02:26:22;6.28;80.35
62476;DHT22;50739;45.670;11.936;2023-11-19T02:31:27;6.32;79.96
62476;DHT22;50739;45.670;11.936;2023-11-19T02:36:29;6.07;81.11
62476;DHT22;50739;45.670;11.936;2023-11-19T02:41:33;5.96;81.84
62476;DHT22;50739;45.670;11.936;2023-11-19T02:46:36;5.93;82.24
62476;DHT22;50739;45.670;11.936;2023-11-19T02:51:39;5.93;81.87
62476;DHT22;50739;45.670;11.936;2023-11-19T02:56:42;6.03;81.26
62476;DHT22;50739;45.670;11.936;2023-11-19T03:01:46;6.08;81.94
62476;DHT22;50739;45.670;11.936;2023-11-19T03:06:51;6.07;81.44
62476;DHT22;50739;45.670;11.936;2023-11-19T03:11:54;5.98;82.08
62476;DHT22;50739;45.670;11.936;2023-11-19T03:16:57;5.85;83.52
62476;DHT22;50739;45.670;11.936;2023-11-19T03:22:01;5.94;82.35
62476;DHT22;50739;45.670;11.936;2023-11-19T03:27:04;5.93;82.64
62476;DHT22;50739;45.670;11.936;2023-11-19T03:32:08;5.97;82.73
62476;DHT22;50739;45.670;11.936;2023-11-19T03:37:10;5.93;83.21
62476;DHT22;50739;45.670;11.936;2023-11-19T03:42:13;5.77;83.46
62476;DHT22;50739;45.670;11.936;2023-11-19T03:47:17;5.81;83.59
62476;DHT22;50739;45.670;11.936;2023-11-19T03:52:19;5.69;83.70
62476;DHT22;50739;45.670;11.936;2023-11-19T03:57:22;5.66;83.27
62476;DHT22;50739;45.670;11.936;2023-11-19T04:02:25;5.86;82.52
62476;DHT22;50739;45.670;11.936;2023-11-19T04:07:29;5.78;83.63
62476;DHT22;50739;45.670;11.936;2023-11-19T04:12:32;5.56;84.54
62476;DHT22;50739;45.670;11.936;2023-11-19T04:17:36;5.50;84.74
62476;DHT22;50739;45.670;11.936;2023-11-19T04:22:38;5.59;84.23
62476;DHT22;50739;45.670;11.936;2023-11-19T04:27:41;5.59;83.50
62476;DHT22;50739;45.670;11.936;2023-11-19T04:32:44;5.67;83.04
62476;DHT22;50739;45.670;11.936;2023-11-19T04:37:47;5.56;82.95
62476;DHT22;50739;45.670;11.936;2023-11-19T04:42:49;5.66;82.47
62476;DHT22;50739;45.670;11.936;2023-11-19T04:47:53;5.55;82.92
62476;DHT22;50739;45.670;11.936;2023-11-19T04:52:55;5.60;82.91
62476;DHT22;50739;45.670;11.936;2023-11-19T04:57:57;5.62;83.31
62476;DHT22;50739;45.670;11.936;2023-11-19T05:03:01;5.66;83.27
62476;DHT22;50739;45.670;11.936;2023-11-19T05:08:04;5.60;82.57
62476;DHT22;50739;45.670;11.936;2023-11-19T05:13:07;5.52;83.84
62476;DHT22;50739;45.670;11.936;2023-11-19T05:18:11;5.43;83.95
62476;DHT22;50739;45.670;11.936;2023-11-19T05:23:13;5.32;84.56
62476;DHT22;50739;45.670;11.936;2023-11-19T05:28:15;5.31;83.83
62476;DHT22;50739;45.670;11.936;2023-11-19T05:33:19;5.42;83.42
62476;DHT22;50739;45.670;11.936;2023-11-19T05:38:21;5.49;82.87
62476;DHT22;50739;45.670;11.936;2023-11-19T05:43:24;5.52;82.65
62476;DHT22;50739;45.670;11.936;2023-11-19T05:48:28;5.46;83.05
62476;DHT22;50739;45.670;11.936;2023-11-19T05:53:30;5.35;83.06
62476;DHT22;50739;45.670;11.936;2023-11-19T05:58:32;5.27;83.02
62476;DHT22;50739;45.670;11.936;2023-11-19T06:03:36;5.34;82.34
62476;DHT22;50739;45.670;11.936;2023-11-19T06:08:39;5.27;84.05
62476;DHT22;50739;45.670;11.936;2023-11-19T06:13:41;5.18;84.30
62476;DHT22;50739;45.670;11.936;2023-11-19T06:18:46;5.08;84.61
62476;DHT22;50739;45.670;11.936;2023-11-19T06:23:48;5.22;83.57
62476;DHT22;50739;45.670;11.936;2023-11-19T06:28:52;5.08;84.57
62476;DHT22;50739;45.670;11.936;2023-11-19T06:33:56;5.08;84.24
62476;DHT22;50739;45.670;11.936;2023-11-19T06:38:59;5.12;84.32
62476;DHT22;50739;45.670;11.936;2023-11-19T06:44:01;5.20;83.70
62476;DHT22;50739;45.670;11.936;2023-11-19T06:49:05;5.28;83.37
62476;DHT22;50739;45.670;11.936;2023-11-19T06:54:08;5.21;82.86
62476;DHT22;50739;45.670;11.936;2023-11-19T06:59:10;5.34;83.49
62476;DHT22;50739;45.670;11.936;2023-11-19T07:04:14;5.46;82.68
62476;DHT22;50739;45.670;11.936;2023-11-19T07:09:16;5.50;82.49
62476;DHT22;50739;45.670;11.936;2023-11-19T07:14:19;5.55;82.36
62476;DHT22;50739;45.670;11.936;2023-11-19T07:19:23;5.70;81.64
62476;DHT22;50739;45.670;11.936;2023-11-19T07:24:26;5.85;80.84
62476;DHT22;50739;45.670;11.936;2023-11-19T07:29:29;5.93;81.98
62476;DHT22;50739;45.670;11.936;2023-11-19T07:34:34;6.17;80.99
62476;DHT22;50739;45.670;11.936;2023-11-19T07:39:36;6.22;80.43
62476;DHT22;50739;45.670;11.936;2023-11-19T07:44:42;6.31;79.77
62476;DHT22;50739;45.670;11.936;2023-11-19T07:49:46;6.42;79.90
62476;DHT22;50739;45.670;11.936;2023-11-19T07:54:48;6.65;78.19
62476;DHT22;50739;45.670;11.936;2023-11-19T07:59:51;6.70;79.07
62476;DHT22;50739;45.670;11.936;2023-11-19T08:04:56;6.79;78.64
62476;DHT22;50739;45.670;11.936;2023-11-19T08:09:58;6.90;78.46
62476;DHT22;50739;45.670;11.936;2023-11-19T08:15:01;7.04;77.10
62476;DHT22;50739;45.670;11.936;2023-11-19T08:20:06;7.14;77.21
62476;DHT22;50739;45.670;11.936;2023-11-19T08:25:11;7.46;76.49
62476;DHT22;50739;45.670;11.936;2023-11-19T08:30:14;7.69;75.95
62476;DHT22;50739;45.670;11.936;2023-11-19T08:35:18;7.69;76.85
62476;DHT22;50739;45.670;11.936;2023-11-19T08:40:20;7.76;77.33
62476;DHT22;50739;45.670;11.936;2023-11-19T08:45:23;8.07;76.13
62476;DHT22;50739;45.670;11.936;2023-11-19T08:50:27;8.44;74.50
62476;DHT22;50739;45.670;11.936;2023-11-19T08:55:29;8.60;74.73
62476;DHT22;50739;45.670;11.936;2023-11-19T09:00:32;8.83;74.05
62476;DHT22;50739;45.670;11.936;2023-11-19T09:05:36;8.97;73.71
62476;DHT22;50739;45.670;11.936;2023-11-19T09:10:39;9.25;71.69
62476;DHT22;50739;45.670;11.936;2023-11-19T09:15:41;9.30;71.82
62476;DHT22;50739;45.670;11.936;2023-11-19T09:20:45;9.44;71.13
62476;DHT22;50739;45.670;11.936;2023-11-19T09:25:48;9.42;71.43
62476;DHT22;50739;45.670;11.936;2023-11-19T09:30:50;9.46;68.07
62476;DHT22;50739;45.670;11.936;2023-11-19T09:35:54;9.71;68.65
62476;DHT22;50739;45.670;11.936;2023-11-19T09:40:59;9.91;68.14
62476;DHT22;50739;45.670;11.936;2023-11-19T09:46:05;9.71;69.16
62476;DHT22;50739;45.670;11.936;2023-11-19T09:51:10;9.89;67.17
62476;DHT22;50739;45.670;11.936;2023-11-19T09:56:12;9.86;67.59
62476;DHT22;50739;45.670;11.936;2023-11-19T10:01:15;10.13;67.35
62476;DHT22;50739;45.670;11.936;2023-11-19T10:06:19;10.21;65.55
62476;DHT22;50739;45.670;11.936;2023-11-19T10:11:21;10.72;63.69
62476;DHT22;50739;45.670;11.936;2023-11-19T10:16:28;10.69;64.01
62476;DHT22;50739;45.670;11.936;2023-11-19T10:21:34;10.95;62.67
62476;DHT22;50739;45.670;11.936;2023-11-19T10:26:37;11.06;61.82
62476;DHT22;50739;45.670;11.936;2023-11-19T10:31:39;10.73;64.16
62476;DHT22;50739;45.670;11.936;2023-11-19T10:36:43;10.86;63.99
62476;DHT22;50739;45.670;11.936;2023-11-19T10:41:45;10.77;63.32
62476;DHT22;50739;45.670;11.936;2023-11-19T10:46:48;10.95;63.80
62476;DHT22;50739;45.670;11.936;2023-11-19T10:51:53;11.09;63.58
62476;DHT22;50739;45.670;11.936;2023-11-19T10:56:58;11.16;61.87
62476;DHT22;50739;45.670;11.936;2023-11-19T11:02:04;11.06;61.61
62476;DHT22;50739;45.670;11.936;2023-11-19T11:07:10;11.10;60.49
62476;DHT22;50739;45.670;11.936;2023-11-19T11:12:14;11.11;62.04
62476;DHT22;50739;45.670;11.936;2023-11-19T11:17:17;11.16;62.32
62476;DHT22;50739;45.670;11.936;2023-11-19T11:22:22;11.37;62.60
62476;DHT22;50739;45.670;11.936;2023-11-19T11:27:52;11.24;63.62
62476;DHT22;50739;45.670;11.936;2023-11-19T11:33:10;11.35;63.46
62476;DHT22;50739;45.670;11.936;2023-11-19T11:38:22;11.44;62.23
62476;DHT22;50739;45.670;11.936;2023-11-19T11:43:44;11.50;62.70
62476;DHT22;50739;45.670;11.936;2023-11-19T11:48:48;11.64;62.76
62476;DHT22;50739;45.670;11.936;2023-11-19T11:53:52;11.83;62.43
62476;DHT22;50739;45.670;11.936;2023-11-19T11:58:55;11.78;63.55
62476;DHT22;50739;45.670;11.936;2023-11-19T12:03:58;11.83;63.27
62476;DHT22;50739;45.670;11.936;2023-11-19T12:09:01;12.16;61.37
62476;DHT22;50739;45.670;11.936;2023-11-19T12:14:04;11.93;61.78
62476;DHT22;50739;45.670;11.936;2023-11-19T12:19:08;11.81;62.34
62476;DHT22;50739;45.670;11.936;2023-11-19T12:24:12;11.85;62.04
62476;DHT22;50739;45.670;11.936;2023-11-19T12:29:15;11.99;62.87
62476;DHT22;50739;45.670;11.936;2023-11-19T12:34:18;12.02;63.34
62476;DHT22;50739;45.670;11.936;2023-11-19T12:39:29;12.07;61.62
62476;DHT22;50739;45.670;11.936;2023-11-19T12:44:32;12.12;61.42
62476;DHT22;50739;45.670;11.936;2023-11-19T12:49:35;12.09;62.40
62476;DHT22;50739;45.670;11.936;2023-11-19T12:54:39;12.12;62.01
62476;DHT22;50739;45.670;11.936;2023-11-19T12:59:41;11.89;62.75
62476;DHT22;50739;45.670;11.936;2023-11-19T13:04:43;12.12;62.37
62476;DHT22;50739;45.670;11.936;2023-11-19T13:09:48;12.10;62.82
62476;DHT22;50739;45.670;11.936;2023-11-19T13:14:51;12.45;60.80
62476;DHT22;50739;45.670;11.936;2023-11-19T13:19:54;13.13;58.84
62476;DHT22;50739;45.670;11.936;2023-11-19T13:24:59;13.79;56.15
62476;DHT22;50739;45.670;11.936;2023-11-19T13:30:04;14.16;56.55
62476;DHT22;50739;45.670;11.936;2023-11-19T13:35:08;14.40;55.11
62476;DHT22;50739;45.670;11.936;2023-11-19T13:40:12;14.85;54.75
62476;DHT22;50739;45.670;11.936;2023-11-19T13:45:16;15.51;51.70
62476;DHT22;50739;45.670;11.936;2023-11-19T13:50:19;15.98;52.75
62476;DHT22;50739;45.670;11.936;2023-11-19T13:55:25;15.91;52.09
62476;DHT22;50739;45.670;11.936;2023-11-19T14:00:28;16.09;49.83
62476;DHT22;50739;45.670;11.936;2023-11-19T14:05:30;15.74;49.39
62476;DHT22;50739;45.670;11.936;2023-11-19T14:10:34;15.67;50.81
62476;DHT22;50739;45.670;11.936;2023-11-19T14:15:37;15.28;52.70
62476;DHT22;50739;45.670;11.936;2023-11-19T14:20:39;15.35;53.03
62476;DHT22;50739;45.670;11.936;2023-11-19T14:25:44;15.77;51.00
62476;DHT22;50739;45.670;11.936;2023-11-19T14:30:46;15.53;52.00
62476;DHT22;50739;45.670;11.936;2023-11-19T14:35:54;14.27;54.90
62476;DHT22;50739;45.670;11.936;2023-11-19T14:40:58;14.01;56.20
62476;DHT22;50739;45.670;11.936;2023-11-19T14:46:01;13.05;61.38
62476;DHT22;50739;45.670;11.936;2023-11-19T14:51:05;12.36;64.93
62476;DHT22;50739;45.670;11.936;2023-11-19T14:56:11;12.00;65.33
62476;DHT22;50739;45.670;11.936;2023-11-19T15:01:14;11.59;69.25
62476;DHT22;50739;45.670;11.936;2023-11-19T15:06:17;11.37;70.25
62476;DHT22;50739;45.670;11.936;2023-11-19T15:11:21;11.13;72.77
62476;DHT22;50739;45.670;11.936;2023-11-19T15:16:25;10.96;72.68
62476;DHT22;50739;45.670;11.936;2023-11-19T15:21:32;10.80;73.55
62476;DHT22;50739;45.670;11.936;2023-11-19T15:26:36;10.55;75.24
62476;DHT22;50739;45.670;11.936;2023-11-19T15:31:38;10.38;75.99
62476;DHT22;50739;45.670;11.936;2023-11-19T15:36:41;10.25;76.41
62476;DHT22;50739;45.670;11.936;2023-11-19T15:41:45;10.07;76.95
62476;DHT22;50739;45.670;11.936;2023-11-19T15:46:47;9.96;77.74
62476;DHT22;50739;45.670;11.936;2023-11-19T15:51:50;9.83;78.12
62476;DHT22;50739;45.670;11.936;2023-11-19T15:56:54;9.76;78.34
62476;DHT22;50739;45.670;11.936;2023-11-19T16:01:56;9.55;78.92
62476;DHT22;50739;45.670;11.936;2023-11-19T16:06:59;9.28;78.18
62476;DHT22;50739;45.670;11.936;2023-11-19T16:12:06;9.27;79.30
62476;DHT22;50739;45.670;11.936;2023-11-19T16:17:09;9.18;79.48
62476;DHT22;50739;45.670;11.936;2023-11-19T16:22:11;9.07;80.27
62476;DHT22;50739;45.670;11.936;2023-11-19T16:27:15;8.97;80.19
62476;DHT22;50739;45.670;11.936;2023-11-19T16:32:18;8.86;80.64
62476;DHT22;50739;45.670;11.936;2023-11-19T16:37:20;8.86;80.66
62476;DHT22;50739;45.670;11.936;2023-11-19T16:42:24;8.80;80.89
62476;DHT22;50739;45.670;11.936;2023-11-19T16:47:27;8.55;81.55
62476;DHT22;50739;45.670;11.936;2023-11-19T16:52:29;8.53;81.35
62476;DHT22;50739;45.670;11.936;2023-11-19T16:57:33;8.59;81.83
62476;DHT22;50739;45.670;11.936;2023-11-19T17:02:37;8.49;82.25
62476;DHT22;50739;45.670;11.936;2023-11-19T17:07:43;8.34;82.07
62476;DHT22;50739;45.670;11.936;2023-11-19T17:12:46;8.25;82.51
62476;DHT22;50739;45.670;11.936;2023-11-19T17:17:49;8.32;82.55
62476;DHT22;50739;45.670;11.936;2023-11-19T17:22:51;8.34;82.70
62476;DHT22;50739;45.670;11.936;2023-11-19T17:27:57;8.01;83.95
62476;DHT22;50739;45.670;11.936;2023-11-19T17:32:59;8.21;83.12
62476;DHT22;50739;45.670;11.936;2023-11-19T17:38:01;8.20;83.19
62476;DHT22;50739;45.670;11.936;2023-11-19T17:43:06;8.32;81.49
62476;DHT22;50739;45.670;11.936;2023-11-19T17:48:09;8.45;81.73
62476;DHT22;50739;45.670;11.936;2023-11-19T17:53:11;8.37;81.97
62476;DHT22;50739;45.670;11.936;2023-11-19T17:58:15;8.24;81.82
62476;DHT22;50739;45.670;11.936;2023-11-19T18:03:18;8.17;82.02
62476;DHT22;50739;45.670;11.936;2023-11-19T18:08:20;8.05;83.20
62476;DHT22;50739;45.670;11.936;2023-11-19T18:13:25;7.80;83.46
62476;DHT22;50739;45.670;11.936;2023-11-19T18:18:27;7.76;84.15
62476;DHT22;50739;45.670;11.936;2023-11-19T18:23:29;7.69;83.88
62476;DHT22;50739;45.670;11.936;2023-11-19T18:28:33;7.77;83.77
62476;DHT22;50739;45.670;11.936;2023-11-19T18:33:36;7.62;84.25
62476;DHT22;50739;45.670;11.936;2023-11-19T18:38:38;7.61;84.64
62476;DHT22;50739;45.670;11.936;2023-11-19T18:43:42;7.56;84.70
62476;DHT22;50739;45.670;11.936;2023-11-19T18:48:44;7.55;85.00
62476;DHT22;50739;45.670;11.936;2023-11-19T18:53:47;7.45;84.82
62476;DHT22;50739;45.670;11.936;2023-11-19T18:58:51;7.36;85.29
62476;DHT22;50739;45.670;11.936;2023-11-19T19:03:53;7.38;85.14
62476;DHT22;50739;45.670;11.936;2023-11-19T19:08:55;7.28;86.23
62476;DHT22;50739;45.670;11.936;2023-11-19T19:13:59;8.49;82.47
62476;DHT22;50739;45.670;11.936;2023-11-19T19:19:02;8.76;80.09
62476;DHT22;50739;45.670;11.936;2023-11-19T19:24:05;8.72;79.66
62476;DHT22;50739;45.670;11.936;2023-11-19T19:29:11;9.04;79.59
62476;DHT22;50739;45.670;11.936;2023-11-19T19:34:13;8.79;80.53
62476;DHT22;50739;45.670;11.936;2023-11-19T19:39:16;8.45;80.87
62476;DHT22;50739;45.670;11.936;2023-11-19T19:44:20;8.14;81.88
62476;DHT22;50739;45.670;11.936;2023-11-19T19:49:23;8.05;81.62
62476;DHT22;50739;45.670;11.936;2023-11-19T19:54:26;7.87;82.32
62476;DHT22;50739;45.670;11.936;2023-11-19T19:59:32;8.10;81.25
62476;DHT22;50739;45.670;11.936;2023-11-19T20:04:35;8.10;81.77
62476;DHT22;50739;45.670;11.936;2023-11-19T20:09:40;8.04;81.63
62476;DHT22;50739;45.670;11.936;2023-11-19T20:14:44;7.80;81.78
62476;DHT22;50739;45.670;11.936;2023-11-19T20:19:46;7.62;82.46
62476;DHT22;50739;45.670;11.936;2023-11-19T20:24:48;7.56;83.27
62476;DHT22;50739;45.670;11.936;2023-11-19T20:29:52;7.52;82.70
62476;DHT22;50739;45.670;11.936;2023-11-19T20:34:55;7.45;82.49
62476;DHT22;50739;45.670;11.936;2023-11-19T20:39:59;7.08;83.42
62476;DHT22;50739;45.670;11.936;2023-11-19T20:45:04;7.08;83.36
62476;DHT22;50739;45.670;11.936;2023-11-19T20:50:06;7.15;83.72
62476;DHT22;50739;45.670;11.936;2023-11-19T20:55:09;7.38;82.82
62476;DHT22;50739;45.670;11.936;2023-11-19T21:00:16;7.32;82.20
62476;DHT22;50739;45.670;11.936;2023-11-19T21:05:19;7.32;82.25
62476;DHT22;50739;45.670;11.936;2023-11-19T21:10:22;7.41;82.38
62476;DHT22;50739;45.670;11.936;2023-11-19T21:15:25;7.22;82.63
62476;DHT22;50739;45.670;11.936;2023-11-19T21:20:28;7.17;82.15
62476;DHT22;50739;45.670;11.936;2023-11-19T21:25:30;7.25;82.52
62476;DHT22;50739;45.670;11.936;2023-11-19T21:30:35;6.81;84.15
62476;DHT22;50739;45.670;11.936;2023-11-19T21:35:37;6.87;83.43
62476;DHT22;50739;45.670;11.936;2023-11-19T21:40:39;6.80;83.91
62476;DHT22;50739;45.670;11.936;2023-11-19T21:45:43;6.75;83.82
62476;DHT22;50739;45.670;11.936;2023-11-19T21:50:46;6.83;83.32
62476;DHT22;50739;45.670;11.936;2023-11-19T21:55:48;6.75;83.63
62476;DHT22;50739;45.670;11.936;2023-11-19T22:00:52;6.59;84.09
62476;DHT22;50739;45.670;11.936;2023-11-19T22:05:54;6.77;83.59
62476;DHT22;50739;45.670;11.936;2023-11-19T22:10:57;6.65;83.84
62476;DHT22;50739;45.670;11.936;2023-11-19T22:16:01;6.60;83.58
62476;DHT22;50739;45.670;11.936;2023-11-19T22:21:03;6.57;83.64
62476;DHT22;50739;45.670;11.936;2023-11-19T22:26:06;6.50;84.08
62476;DHT22;50739;45.670;11.936;2023-11-19T22:31:10;6.22;84.72
62476;DHT22;50739;45.670;11.936;2023-11-19T22:36:13;6.25;84.71
62476;DHT22;50739;45.670;11.936;2023-11-19T22:41:15;5.76;85.77
62476;DHT22;50739;45.670;11.936;2023-11-19T22:46:19;5.94;85.27
62476;DHT22;50739;45.670;11.936;2023-11-19T22:51:23;6.03;84.95
62476;DHT22;50739;45.670;11.936;2023-11-19T22:56:25;6.10;85.05
62476;DHT22;50739;45.670;11.936;2023-11-19T23:01:29;5.78;85.51
62476;DHT22;50739;45.670;11.936;2023-11-19T23:06:33;5.80;86.30
62476;DHT22;50739;45.670;11.936;2023-11-19T23:11:35;5.98;85.49
62476;DHT22;50739;45.670;11.936;2023-11-19T23:16:39;5.94;86.06
62476;DHT22;50739;45.670;11.936;2023-11-19T23:21:41;5.97;85.43
62476;DHT22;50739;45.670;11.936;2023-11-19T23:26:45;6.03;84.74
62476;DHT22;50739;45.670;11.936;2023-11-19T23:31:48;5.96;85.13
62476;DHT22;50739;45.670;11.936;2023-11-19T23:36:51;5.74;85.88
62476;DHT22;50739;45.670;11.936;2023-11-19T23:41:53;5.91;85.13
62476;DHT22;50739;45.670;11.936;2023-11-19T23:46:57;5.89;84.63
62476;DHT22;50739;45.670;11.936;2023-11-19T23:52:00;5.83;85.27
62476;DHT22;50739;45.670;11.936;2023-11-19T23:57:05;5.93;84.96
